Nsu Inspire — 3FID5 — position and weather

sailwx.info

Track history (hours):
 
Tides and Currents Weather Stations Pressure Air Temp Water Temp Dewpoint Dewpoint Depression Visibility Wind Speed Wind Dir Waves Ship Positions

Nsu Inspire

Last reported at 2016-Jun-27 19:23 UTC. Time now 2016-Jun-29 00:04 UTC.
Position N 36°23' E 141°24'.

Length 330 m; draft 14.3 m.

Type: Cargo ship. MMSI: 372998000.

Date/timePositionNaut miles runAvg speedWind from/ knotsBaromVisibWave heightAir tempDewpointWater temp
2016-Jun-27 19:23N 36°23' E 141°24'1315.0
2016-Jun-27 18:33N 36°11' E 141°20'1514.9
2016-Jun-27 17:32N 35°56' E 141°16'1414.4
2016-Jun-27 16:33N 35°42' E 141°12'1514.8
2016-Jun-27 15:33N 35°28' E 141°08'1615.9
2016-Jun-27 14:33N 35°18' E 140°53'1615.7
2016-Jun-27 13:33N 35°08' E 140°38'1615.9
2016-Jun-27 12:33N 34°58' E 140°22'1515.2
2016-Jun-27 11:33N 34°53' E 140°05'1414.2
2016-Jun-27 10:33N 34°49' E 139°48'1312.9
2016-Jun-27 09:33N 35°00' E 139°40'1312.8
2016-Jun-27 08:33N 35°12' E 139°46'10 9.6
2016-Jun-27 07:34N 35°21' E 139°42'7 6.6
2016-Jun-27 06:34N 35°23' E 139°50'2 1.6
2016-Jun-27 05:33N 35°22' E 139°52'0 0.0
2016-Jun-27 04:33N 35°22' E 139°52'0 0.0
2016-Jun-27 03:33N 35°22' E 139°52'0 0.0
2016-Jun-27 02:33N 35°22' E 139°52'0 0.0
2016-Jun-27 01:33N 35°22' E 139°52'0 0.0
2016-Jun-27 00:33N 35°22' E 139°52'0 0.0
2016-Jun-26 23:33N 35°22' E 139°52'0 0.0
2016-Jun-26 22:33N 35°22' E 139°52'0 0.0
2016-Jun-26 21:33N 35°22' E 139°52'0 0.0
2016-Jun-26 20:30N 35°22' E 139°52'0 0.0
2016-Jun-26 19:33N 35°22' E 139°52'0 0.0
2016-Jun-26 18:33N 35°22' E 139°52'0 0.0
2016-Jun-26 17:33N 35°22' E 139°52'0 0.0
2016-Jun-26 16:33N 35°22' E 139°52'0 0.0
2016-Jun-26 15:30N 35°22' E 139°52'0 0.0
2016-Jun-26 14:30N 35°22' E 139°52'0 0.0
2016-Jun-26 13:33N 35°22' E 139°52'0 0.0
2016-Jun-26 12:33N 35°22' E 139°52'0 0.0
2016-Jun-26 11:33N 35°22' E 139°52'0 0.0
2016-Jun-26 10:33N 35°22' E 139°52'0 0.0
2016-Jun-26 09:33N 35°22' E 139°52'0 0.0
2016-Jun-26 08:33N 35°22' E 139°52'0 0.0
2016-Jun-26 07:33N 35°22' E 139°52'0 0.0
2016-Jun-26 06:30N 35°22' E 139°52'0 0.0
2016-Jun-26 05:33N 35°22' E 139°52'0 0.0
2016-Jun-26 04:30N 35°22' E 139°52'0 0.0
2016-Jun-26 03:33N 35°22' E 139°52'0 0.0
2016-Jun-26 02:33N 35°22' E 139°52'0 0.0
2016-Jun-26 01:33N 35°22' E 139°52'0 0.0
2016-Jun-26 00:33N 35°22' E 139°52'0 0.0
2016-Jun-25 23:33N 35°22' E 139°52'0 0.0
2016-Jun-25 22:33N 35°22' E 139°52'0 0.0
2016-Jun-25 21:30N 35°22' E 139°52'0 0.0
2016-Jun-25 20:30N 35°22' E 139°52'0 0.0
2016-Jun-25 19:33N 35°22' E 139°52'0 0.0
2016-Jun-25 18:30N 35°22' E 139°52'0 0.0
2016-Jun-25 17:33N 35°22' E 139°52'0 0.0
2016-Jun-25 16:33N 35°22' E 139°52'0 0.0
2016-Jun-25 15:27N 35°22' E 139°52'0 0.0
2016-Jun-25 14:33N 35°22' E 139°52'0 0.0
2016-Jun-25 13:27N 35°22' E 139°52'0 0.0
2016-Jun-25 12:33N 35°22' E 139°52'0 0.0
2016-Jun-25 11:21N 35°22' E 139°52'1 1.4
2016-Jun-25 10:33N 35°23' E 139°51'3 3.1
2016-Jun-25 09:33N 35°26' E 139°49'0 0.1
2016-Jun-25 08:30N 35°26' E 139°49'0 0.0
2016-Jun-25 07:34N 35°26' E 139°49'0 0.0
2016-Jun-25 06:32N 35°26' E 139°49'0 0.0
2016-Jun-25 05:33N 35°26' E 139°49'0 0.0
2016-Jun-25 04:33N 35°26' E 139°49'0 0.0
2016-Jun-25 03:32N 35°26' E 139°49'0 0.0
2016-Jun-25 02:33N 35°26' E 139°49'0 0.1
2016-Jun-25 01:28N 35°26' E 139°49'0 0.0
2016-Jun-25 00:33N 35°26' E 139°49'0 0.1
2016-Jun-24 23:33N 35°25' E 139°49'0 0.1
2016-Jun-24 22:32N 35°26' E 139°49'0 0.1
2016-Jun-24 21:33N 35°26' E 139°49'0 0.0
2016-Jun-24 20:33N 35°26' E 139°49'0 0.0
2016-Jun-24 19:33N 35°26' E 139°49'0 0.0
2016-Jun-24 18:33N 35°26' E 139°49'0 0.0
2016-Jun-24 17:33N 35°26' E 139°49'0 0.2
2016-Jun-24 16:32N 35°25' E 139°49'0 0.2
2016-Jun-24 15:29N 35°25' E 139°49'0 0.0
2016-Jun-24 14:32N 35°25' E 139°49'0 0.1
2016-Jun-24 13:32N 35°25' E 139°49'0 0.1
2016-Jun-24 12:32N 35°25' E 139°49'0 0.2
2016-Jun-24 11:32N 35°25' E 139°49'0 0.1
2016-Jun-24 10:32N 35°25' E 139°49'0 0.0
2016-Jun-24 09:32N 35°25' E 139°49'0 0.0
2016-Jun-24 08:32N 35°25' E 139°49'0 0.0
2016-Jun-24 07:32N 35°25' E 139°49'0 0.1
2016-Jun-24 04:29N 35°25' E 139°49'0 0.0
2016-Jun-24 03:32N 35°25' E 139°49'0 0.0
2016-Jun-24 02:32N 35°25' E 139°49'0 0.0
2016-Jun-24 01:32N 35°25' E 139°49'0 0.0
2016-Jun-24 00:32N 35°25' E 139°49'0 0.1
2016-Jun-23 23:32N 35°25' E 139°49'0 0.0
2016-Jun-23 22:32N 35°25' E 139°49'0 0.1
2016-Jun-23 21:32N 35°25' E 139°49'0 0.2
2016-Jun-23 20:32N 35°25' E 139°49'0 0.2
2016-Jun-23 19:29N 35°26' E 139°49'0 0.2
2016-Jun-23 18:32N 35°25' E 139°49'0 0.2
2016-Jun-23 17:32N 35°25' E 139°49'0 0.1
2016-Jun-23 16:32N 35°25' E 139°49'0 0.0
2016-Jun-23 15:32N 35°25' E 139°49'0 0.0
2016-Jun-23 14:32N 35°25' E 139°49'0 0.0
2016-Jun-23 13:32N 35°25' E 139°49'0 0.0
2016-Jun-23 12:32N 35°25' E 139°49'0 0.0
2016-Jun-23 11:32N 35°25' E 139°49'0 0.2
2016-Jun-23 10:32N 35°25' E 139°49'0 0.2
2016-Jun-23 09:32N 35°25' E 139°49'0 0.0
2016-Jun-23 08:32N 35°25' E 139°49'0 0.1
2016-Jun-23 07:32N 35°25' E 139°49'0 0.1
2016-Jun-23 05:29N 35°25' E 139°49'0 0.2
2016-Jun-23 04:32N 35°25' E 139°49'0 0.1
2016-Jun-23 03:32N 35°25' E 139°49'0 0.0
2016-Jun-23 02:32N 35°25' E 139°49'0 0.0
2016-Jun-23 01:32N 35°25' E 139°49'0 0.0
2016-Jun-23 00:32N 35°25' E 139°49'0 0.0
2016-Jun-22 23:32N 35°25' E 139°49'0 0.0
2016-Jun-22 22:29N 35°25' E 139°49'0 0.2
2016-Jun-22 21:32N 35°25' E 139°49'0 0.2
2016-Jun-22 20:32N 35°25' E 139°49'0 0.1
2016-Jun-22 19:29N 35°26' E 139°49'0 0.3
2016-Jun-22 18:29N 35°25' E 139°49'0 0.2
2016-Jun-22 17:32N 35°25' E 139°49'0 0.0
2016-Jun-22 16:32N 35°25' E 139°49'0 0.0
2016-Jun-22 15:32N 35°25' E 139°49'0 0.1
2016-Jun-22 14:32N 35°25' E 139°49'0 0.0
2016-Jun-22 13:32N 35°25' E 139°49'0 0.0
2016-Jun-22 12:32N 35°25' E 139°49'0 0.0
2016-Jun-22 11:32N 35°25' E 139°49'0 0.1
2016-Jun-22 10:32N 35°25' E 139°49'1 1.3
2016-Jun-22 09:33N 35°25' E 139°47'8 8.5
2016-Jun-22 08:33N 35°16' E 139°46'9 9.0
2016-Jun-22 07:33N 35°07' E 139°46'6 6.2
2016-Jun-22 06:33N 35°02' E 139°43'10 9.5
2016-Jun-22 05:33N 34°52' E 139°40'  
Track history (hours):
 
Tides and Currents Weather Stations Pressure Air Temp Water Temp Dewpoint Dewpoint Depression Visibility Wind Speed Wind Dir Waves Ship Positions

Nsu Inspire

Last reported at 2016-Jun-27 19:23 UTC. Time now 2016-Jun-29 00:04 UTC.
Position N 36°23' E 141°24'.

Length 330 m; draft 14.3 m.

Type: Cargo ship. MMSI: 372998000.

Date/timePositionNaut miles runAvg speedWind from/ knotsBaromVisibWave heightAir tempDewpointWater temp
2016-Jun-27 19:23N 36°23' E 141°24'1315.0
2016-Jun-27 18:33N 36°11' E 141°20'1514.9
2016-Jun-27 17:32N 35°56' E 141°16'1414.4
2016-Jun-27 16:33N 35°42' E 141°12'1514.8
2016-Jun-27 15:33N 35°28' E 141°08'1615.9
2016-Jun-27 14:33N 35°18' E 140°53'1615.7
2016-Jun-27 13:33N 35°08' E 140°38'1615.9
2016-Jun-27 12:33N 34°58' E 140°22'1515.2
2016-Jun-27 11:33N 34°53' E 140°05'1414.2
2016-Jun-27 10:33N 34°49' E 139°48'1312.9
2016-Jun-27 09:33N 35°00' E 139°40'1312.8
2016-Jun-27 08:33N 35°12' E 139°46'10 9.6
2016-Jun-27 07:34N 35°21' E 139°42'7 6.6
2016-Jun-27 06:34N 35°23' E 139°50'2 1.6
2016-Jun-27 05:33N 35°22' E 139°52'0 0.0
2016-Jun-27 04:33N 35°22' E 139°52'0 0.0
2016-Jun-27 03:33N 35°22' E 139°52'0 0.0
2016-Jun-27 02:33N 35°22' E 139°52'0 0.0
2016-Jun-27 01:33N 35°22' E 139°52'0 0.0
2016-Jun-27 00:33N 35°22' E 139°52'0 0.0
2016-Jun-26 23:33N 35°22' E 139°52'0 0.0
2016-Jun-26 22:33N 35°22' E 139°52'0 0.0
2016-Jun-26 21:33N 35°22' E 139°52'0 0.0
2016-Jun-26 20:30N 35°22' E 139°52'0 0.0
2016-Jun-26 19:33N 35°22' E 139°52'0 0.0
2016-Jun-26 18:33N 35°22' E 139°52'0 0.0
2016-Jun-26 17:33N 35°22' E 139°52'0 0.0
2016-Jun-26 16:33N 35°22' E 139°52'0 0.0
2016-Jun-26 15:30N 35°22' E 139°52'0 0.0
2016-Jun-26 14:30N 35°22' E 139°52'0 0.0
2016-Jun-26 13:33N 35°22' E 139°52'0 0.0
2016-Jun-26 12:33N 35°22' E 139°52'0 0.0
2016-Jun-26 11:33N 35°22' E 139°52'0 0.0
2016-Jun-26 10:33N 35°22' E 139°52'0 0.0
2016-Jun-26 09:33N 35°22' E 139°52'0 0.0
2016-Jun-26 08:33N 35°22' E 139°52'0 0.0
2016-Jun-26 07:33N 35°22' E 139°52'0 0.0
2016-Jun-26 06:30N 35°22' E 139°52'0 0.0
2016-Jun-26 05:33N 35°22' E 139°52'0 0.0
2016-Jun-26 04:30N 35°22' E 139°52'0 0.0
2016-Jun-26 03:33N 35°22' E 139°52'0 0.0
2016-Jun-26 02:33N 35°22' E 139°52'0 0.0
2016-Jun-26 01:33N 35°22' E 139°52'0 0.0
2016-Jun-26 00:33N 35°22' E 139°52'0 0.0
2016-Jun-25 23:33N 35°22' E 139°52'0 0.0
2016-Jun-25 22:33N 35°22' E 139°52'0 0.0
2016-Jun-25 21:30N 35°22' E 139°52'0 0.0
2016-Jun-25 20:30N 35°22' E 139°52'0 0.0
2016-Jun-25 19:33N 35°22' E 139°52'0 0.0
2016-Jun-25 18:30N 35°22' E 139°52'0 0.0
2016-Jun-25 17:33N 35°22' E 139°52'0 0.0
2016-Jun-25 16:33N 35°22' E 139°52'0 0.0
2016-Jun-25 15:27N 35°22' E 139°52'0 0.0
2016-Jun-25 14:33N 35°22' E 139°52'0 0.0
2016-Jun-25 13:27N 35°22' E 139°52'0 0.0
2016-Jun-25 12:33N 35°22' E 139°52'0 0.0
2016-Jun-25 11:21N 35°22' E 139°52'1 1.4
2016-Jun-25 10:33N 35°23' E 139°51'3 3.1
2016-Jun-25 09:33N 35°26' E 139°49'0 0.1
2016-Jun-25 08:30N 35°26' E 139°49'0 0.0
2016-Jun-25 07:34N 35°26' E 139°49'0 0.0
2016-Jun-25 06:32N 35°26' E 139°49'0 0.0
2016-Jun-25 05:33N 35°26' E 139°49'0 0.0
2016-Jun-25 04:33N 35°26' E 139°49'0 0.0
2016-Jun-25 03:32N 35°26' E 139°49'0 0.0
2016-Jun-25 02:33N 35°26' E 139°49'0 0.1
2016-Jun-25 01:28N 35°26' E 139°49'0 0.0
2016-Jun-25 00:33N 35°26' E 139°49'0 0.1
2016-Jun-24 23:33N 35°25' E 139°49'0 0.1
2016-Jun-24 22:32N 35°26' E 139°49'0 0.1
2016-Jun-24 21:33N 35°26' E 139°49'0 0.0
2016-Jun-24 20:33N 35°26' E 139°49'0 0.0
2016-Jun-24 19:33N 35°26' E 139°49'0 0.0
2016-Jun-24 18:33N 35°26' E 139°49'0 0.0
2016-Jun-24 17:33N 35°26' E 139°49'0 0.2
2016-Jun-24 16:32N 35°25' E 139°49'0 0.2
2016-Jun-24 15:29N 35°25' E 139°49'0 0.0
2016-Jun-24 14:32N 35°25' E 139°49'0 0.1
2016-Jun-24 13:32N 35°25' E 139°49'0 0.1
2016-Jun-24 12:32N 35°25' E 139°49'0 0.2
2016-Jun-24 11:32N 35°25' E 139°49'0 0.1
2016-Jun-24 10:32N 35°25' E 139°49'0 0.0
2016-Jun-24 09:32N 35°25' E 139°49'0 0.0
2016-Jun-24 08:32N 35°25' E 139°49'0 0.0
2016-Jun-24 07:32N 35°25' E 139°49'0 0.1
2016-Jun-24 04:29N 35°25' E 139°49'0 0.0
2016-Jun-24 03:32N 35°25' E 139°49'0 0.0
2016-Jun-24 02:32N 35°25' E 139°49'0 0.0
2016-Jun-24 01:32N 35°25' E 139°49'0 0.0
2016-Jun-24 00:32N 35°25' E 139°49'0 0.1
2016-Jun-23 23:32N 35°25' E 139°49'0 0.0
2016-Jun-23 22:32N 35°25' E 139°49'0 0.1
2016-Jun-23 21:32N 35°25' E 139°49'0 0.2
2016-Jun-23 20:32N 35°25' E 139°49'0 0.2
2016-Jun-23 19:29N 35°26' E 139°49'0 0.2
2016-Jun-23 18:32N 35°25' E 139°49'0 0.2
2016-Jun-23 17:32N 35°25' E 139°49'0 0.1
2016-Jun-23 16:32N 35°25' E 139°49'0 0.0
2016-Jun-23 15:32N 35°25' E 139°49'0 0.0
2016-Jun-23 14:32N 35°25' E 139°49'0 0.0
2016-Jun-23 13:32N 35°25' E 139°49'0 0.0
2016-Jun-23 12:32N 35°25' E 139°49'0 0.0
2016-Jun-23 11:32N 35°25' E 139°49'0 0.2
2016-Jun-23 10:32N 35°25' E 139°49'0 0.2
2016-Jun-23 09:32N 35°25' E 139°49'0 0.0
2016-Jun-23 08:32N 35°25' E 139°49'0 0.1
2016-Jun-23 07:32N 35°25' E 139°49'0 0.1
2016-Jun-23 05:29N 35°25' E 139°49'0 0.2
2016-Jun-23 04:32N 35°25' E 139°49'0 0.1
2016-Jun-23 03:32N 35°25' E 139°49'0 0.0
2016-Jun-23 02:32N 35°25' E 139°49'0 0.0
2016-Jun-23 01:32N 35°25' E 139°49'0 0.0
2016-Jun-23 00:32N 35°25' E 139°49'0 0.0
2016-Jun-22 23:32N 35°25' E 139°49'0 0.0
2016-Jun-22 22:29N 35°25' E 139°49'0 0.2
2016-Jun-22 21:32N 35°25' E 139°49'0 0.2
2016-Jun-22 20:32N 35°25' E 139°49'0 0.1
2016-Jun-22 19:29N 35°26' E 139°49'0 0.3
2016-Jun-22 18:29N 35°25' E 139°49'0 0.2
2016-Jun-22 17:32N 35°25' E 139°49'0 0.0
2016-Jun-22 16:32N 35°25' E 139°49'0 0.0
2016-Jun-22 15:32N 35°25' E 139°49'0 0.1
2016-Jun-22 14:32N 35°25' E 139°49'0 0.0
2016-Jun-22 13:32N 35°25' E 139°49'0 0.0
2016-Jun-22 12:32N 35°25' E 139°49'0 0.0
2016-Jun-22 11:32N 35°25' E 139°49'0 0.1
2016-Jun-22 10:32N 35°25' E 139°49'1 1.3
2016-Jun-22 09:33N 35°25' E 139°47'8 8.5
2016-Jun-22 08:33N 35°16' E 139°46'9 9.0
2016-Jun-22 07:33N 35°07' E 139°46'6 6.2
2016-Jun-22 06:33N 35°02' E 139°43'10 9.5
2016-Jun-22 05:33N 34°52' E 139°40'  

Dump ship's entire track history